Terminal Aerodrome Forecast
Issued by NWS

Home | Current Version | Previous Version | Text Only | Print | Product List | Glossary On
Versions: 1 2 3 4 5 6 7 8 9 10 11 12 13 14 15 16
950
FTUS41 KCAR 230029 AAA
TAFBHB
TAF AMD
KBHB 230029Z 2300/2324 04012KT P6SM SCT025 BKN035
      TEMPO 2300/2302 BKN025
     FM230900 05011KT P6SM BKN025
     FM231500 05010KT P6SM BKN050=

USA.gov is the U.S. government's official web portal to all federal, state and local government web resources and services.